createdAt,value
2022-10-10T00:00:08.716Z,16.15
2022-10-10T00:02:54.147Z,15.35
2022-10-10T00:05:40.458Z,16.30
2022-10-10T00:08:25.946Z,15.68
2022-10-10T00:11:13.515Z,16.25
2022-10-10T00:13:59.237Z,15.55
2022-10-10T00:16:44.823Z,15.73
2022-10-10T00:19:30.660Z,15.50
2022-10-10T00:22:16.359Z,16.70
2022-10-10T00:25:01.918Z,16.77
2022-10-10T00:27:47.527Z,16.17
2022-10-10T00:30:33.120Z,16.67
2022-10-10T00:33:18.909Z,16.08
2022-10-10T00:36:06.131Z,15.45
2022-10-10T00:38:52.006Z,15.90
2022-10-10T00:41:37.566Z,17.08
2022-10-10T00:44:23.064Z,16.75
2022-10-10T00:47:09.694Z,16.63
2022-10-10T00:49:55.235Z,16.77
2022-10-10T00:52:40.739Z,17.35
2022-10-10T00:55:26.298Z,17.20
2022-10-10T00:58:13.196Z,16.40
2022-10-10T01:00:58.943Z,16.42
2022-10-10T01:03:44.960Z,17.25
2022-10-10T01:06:31.742Z,16.83
2022-10-10T01:09:17.379Z,17.13
2022-10-10T01:12:18.574Z,17.08
2022-10-10T01:15:22.676Z,17.85
2022-10-10T01:18:39.292Z,17.27
2022-10-10T01:21:36.734Z,16.35
2022-10-10T01:24:41.908Z,17.45
2022-10-10T01:27:39.371Z,18.48
2022-10-10T01:30:25.815Z,18.88
2022-10-10T01:33:17.847Z,18.83
2022-10-10T01:36:13.097Z,17.67
2022-10-10T01:39:07.833Z,19.30
2022-10-10T01:42:03.175Z,19.33
2022-10-10T01:44:52.503Z,17.40
2022-10-10T01:47:39.087Z,16.70
2022-10-10T01:50:26.449Z,15.77
2022-10-10T01:53:22.529Z,11.52
2022-10-10T01:56:31.652Z,11.25
2022-10-10T01:59:52.442Z,9.35
2022-10-10T02:02:59.254Z,9.70
2022-10-10T02:05:53.251Z,10.23
2022-10-10T02:08:47.635Z,10.23
2022-10-10T02:11:38.231Z,10.75
2022-10-10T02:14:30.502Z,10.18
2022-10-10T02:17:16.685Z,10.23
2022-10-10T02:20:02.287Z,10.32
2022-10-10T02:22:51.575Z,10.05
2022-10-10T02:25:41.184Z,8.95
2022-10-10T02:28:38.792Z,9.60
2022-10-10T02:31:51.056Z,9.40
2022-10-10T02:34:41.122Z,8.90
2022-10-10T02:37:27.685Z,8.15
2022-10-10T02:40:20.404Z,8.13
2022-10-10T02:43:08.655Z,8.13
2022-10-10T02:45:54.516Z,8.38
2022-10-10T02:48:40.783Z,7.53
2022-10-10T02:51:30.311Z,7.90
2022-10-10T02:54:16.050Z,7.63
2022-10-10T02:57:02.033Z,7.65
2022-10-10T02:59:47.710Z,7.30
2022-10-10T03:02:33.646Z,6.97
2022-10-10T03:05:19.384Z,7.28
2022-10-10T03:08:09.244Z,7.75
2022-10-10T03:10:59.781Z,6.90
2022-10-10T03:13:46.216Z,7.57
2022-10-10T03:16:32.021Z,7.32
2022-10-10T03:19:17.827Z,6.95
2022-10-10T03:22:03.878Z,7.78
2022-10-10T03:24:49.589Z,8.27
2022-10-10T03:27:35.438Z,7.68
2022-10-10T03:30:20.941Z,8.20
2022-10-10T03:33:06.976Z,7.78
2022-10-10T03:35:52.529Z,8.45
2022-10-10T03:38:39.959Z,8.10
2022-10-10T03:41:25.862Z,8.10
2022-10-10T03:44:11.424Z,7.75
2022-10-10T03:46:56.900Z,8.55
2022-10-10T03:49:42.641Z,8.85
2022-10-10T03:52:28.394Z,8.95
2022-10-10T03:55:14.403Z,8.95
2022-10-10T03:58:00.081Z,8.50
2022-10-10T04:00:45.521Z,8.50
2022-10-10T04:03:31.443Z,8.63
2022-10-10T04:06:17.411Z,9.15
2022-10-10T04:09:04.389Z,9.52
2022-10-10T04:11:49.906Z,8.77
2022-10-10T04:14:35.206Z,9.02
2022-10-10T04:17:21.132Z,8.75
2022-10-10T04:20:07.197Z,8.93
2022-10-10T04:22:53.354Z,7.95
2022-10-10T04:25:39.962Z,9.18
2022-10-10T04:28:25.896Z,9.38
2022-10-10T04:31:11.773Z,8.90
2022-10-10T04:33:57.314Z,8.10
2022-10-10T04:36:42.955Z,8.32
2022-10-10T04:39:28.703Z,8.50
2022-10-10T04:42:14.439Z,7.95
2022-10-10T04:45:00.187Z,8.10
2022-10-10T04:47:45.944Z,8.35
2022-10-10T04:50:32.120Z,7.55
2022-10-10T04:53:17.808Z,7.95
2022-10-10T04:56:03.591Z,7.82
2022-10-10T04:58:49.586Z,7.65
2022-10-10T05:01:35.896Z,8.02
2022-10-10T05:04:21.790Z,7.95
2022-10-10T05:07:07.499Z,8.10
2022-10-10T05:09:53.735Z,7.82
2022-10-10T05:12:39.588Z,7.97
2022-10-10T05:15:25.567Z,8.10
2022-10-10T05:18:11.499Z,7.90
2022-10-10T05:20:59.819Z,8.07
2022-10-10T05:23:49.178Z,8.20
2022-10-10T05:26:37.585Z,8.00
2022-10-10T05:29:25.822Z,8.70
2022-10-10T05:32:11.290Z,9.15
2022-10-10T05:34:57.303Z,8.55
2022-10-10T05:37:43.090Z,9.75
2022-10-10T05:40:28.863Z,10.73
2022-10-10T05:43:15.103Z,11.02
2022-10-10T05:47:15.311Z,10.75
2022-10-10T05:50:00.807Z,9.27
2022-10-10T05:52:46.523Z,9.30
2022-10-10T05:55:34.124Z,9.05
2022-10-10T05:58:19.670Z,9.82
2022-10-10T06:01:07.684Z,7.88
2022-10-10T06:03:56.020Z,7.75
2022-10-10T06:06:42.319Z,7.10
2022-10-10T06:09:28.055Z,7.03
2022-10-10T06:12:13.810Z,6.03
2022-10-10T06:14:59.598Z,6.60
2022-10-10T06:17:45.442Z,7.25
2022-10-10T06:20:30.877Z,6.93
2022-10-10T06:23:18.267Z,6.38
2022-10-10T06:26:04.332Z,7.05
2022-10-10T06:28:52.623Z,6.50
2022-10-10T06:31:41.105Z,6.53
2022-10-10T06:34:26.954Z,8.20
2022-10-10T06:37:12.555Z,6.80
2022-10-10T06:39:58.370Z,7.43
2022-10-10T06:42:43.705Z,7.10
2022-10-10T06:45:29.294Z,7.30
2022-10-10T06:48:16.149Z,7.30
2022-10-10T06:51:07.734Z,9.20
2022-10-10T06:53:53.291Z,7.70
2022-10-10T06:56:39.107Z,8.07
2022-10-10T06:59:24.532Z,8.57
2022-10-10T07:02:13.878Z,7.97
2022-10-10T07:04:59.743Z,8.38
2022-10-10T07:07:48.775Z,7.57
2022-10-10T07:10:34.127Z,8.90
2022-10-10T07:13:20.628Z,8.60
2022-10-10T07:16:06.740Z,8.45
2022-10-10T07:18:56.857Z,8.35
2022-10-10T07:21:42.767Z,9.25
2022-10-10T07:24:28.081Z,9.32
2022-10-10T07:27:14.009Z,8.93
2022-10-10T07:29:59.615Z,8.20
2022-10-10T07:32:45.485Z,8.30
2022-10-10T07:35:31.265Z,7.78
2022-10-10T07:38:17.230Z,8.38
2022-10-10T07:41:11.823Z,8.93
2022-10-10T07:43:57.664Z,8.35
2022-10-10T07:46:42.891Z,7.35
2022-10-10T07:49:28.698Z,7.88
2022-10-10T07:52:14.650Z,8.90
2022-10-10T07:55:02.517Z,8.68
2022-10-10T07:57:53.171Z,9.00
2022-10-10T08:00:43.144Z,8.02
2022-10-10T08:03:28.758Z,7.38
2022-10-10T08:06:17.010Z,6.93
2022-10-10T08:09:02.669Z,7.70
2022-10-10T08:11:48.088Z,7.20
2022-10-10T08:14:33.963Z,5.95
2022-10-10T08:17:19.701Z,6.13
2022-10-10T08:20:06.214Z,6.68
2022-10-10T08:22:52.516Z,5.32
2022-10-10T08:25:38.262Z,5.70
2022-10-10T08:28:24.011Z,5.70
2022-10-10T08:31:16.148Z,5.55
2022-10-10T08:34:01.746Z,5.43
2022-10-10T08:36:47.487Z,5.63
2022-10-10T08:39:33.305Z,5.80
2022-10-10T08:42:53.103Z,6.13
2022-10-10T08:45:39.943Z,6.30
2022-10-10T08:48:30.126Z,5.38
2022-10-10T08:51:40.422Z,5.82
2022-10-10T08:54:28.557Z,5.82
2022-10-10T08:57:34.203Z,5.60
2022-10-10T09:00:22.909Z,6.40
2022-10-10T09:03:45.068Z,6.22
2022-10-10T09:06:55.833Z,6.55
2022-10-10T09:10:12.590Z,5.97
2022-10-10T09:13:31.858Z,6.30
2022-10-10T09:16:38.237Z,6.25
2022-10-10T09:19:50.304Z,6.53
2022-10-10T09:22:46.472Z,7.57
2022-10-10T09:25:56.986Z,6.50
2022-10-10T09:29:23.831Z,6.88
2022-10-10T09:32:12.415Z,7.07
2022-10-10T09:35:16.833Z,8.55
2022-10-10T09:38:25.020Z,6.80
2022-10-10T09:41:21.287Z,7.30
2022-10-10T09:44:11.367Z,7.13
2022-10-10T09:46:58.855Z,7.22
2022-10-10T09:49:44.796Z,8.00
2022-10-10T09:52:32.066Z,6.80
2022-10-10T09:55:25.118Z,7.57
2022-10-10T09:58:38.207Z,7.60
2022-10-10T10:01:28.983Z,7.28
2022-10-10T10:04:28.791Z,7.72
2022-10-10T10:07:32.904Z,8.38
2022-10-10T10:10:21.397Z,7.97
2022-10-10T10:13:19.282Z,8.13
2022-10-10T10:16:14.567Z,7.43
2022-10-10T10:19:00.145Z,7.55
2022-10-10T10:21:52.578Z,7.53
2022-10-10T10:24:38.194Z,7.80
2022-10-10T10:27:26.823Z,7.65
2022-10-10T10:30:25.318Z,7.82
2022-10-10T10:33:54.271Z,6.60
2022-10-10T10:36:54.979Z,7.55
2022-10-10T10:39:52.863Z,7.00
2022-10-10T10:42:56.985Z,6.88
2022-10-10T10:46:09.545Z,6.20
2022-10-10T10:48:58.267Z,7.13
2022-10-10T10:52:04.526Z,6.35
2022-10-10T10:55:02.211Z,7.25
2022-10-10T10:59:05.436Z,6.93
2022-10-10T11:01:56.327Z,6.72
2022-10-10T11:05:24.294Z,7.22
2022-10-10T11:08:37.767Z,6.43
2022-10-10T11:11:55.687Z,7.03
2022-10-10T11:14:53.793Z,6.85
2022-10-10T11:17:44.619Z,6.20
2022-10-10T11:20:46.601Z,6.70
2022-10-10T11:23:42.013Z,6.68
2022-10-10T11:26:37.071Z,6.22
2022-10-10T11:29:28.213Z,6.68
2022-10-10T11:32:21.912Z,7.20
2022-10-10T11:35:13.913Z,8.43
2022-10-10T11:38:12.731Z,6.90
2022-10-10T11:41:18.653Z,7.30
2022-10-10T11:44:04.080Z,6.90
2022-10-10T11:47:02.267Z,5.47
2022-10-10T11:50:03.107Z,7.65
2022-10-10T11:52:58.915Z,7.57
2022-10-10T11:55:54.754Z,7.22
2022-10-10T11:58:43.946Z,7.20
2022-10-10T12:01:45.426Z,8.13
2022-10-10T12:04:36.095Z,7.28
2022-10-10T12:07:35.406Z,6.47
2022-10-10T12:10:42.315Z,7.53
2022-10-10T12:13:38.671Z,7.32
2022-10-10T12:16:30.761Z,6.65
2022-10-10T12:19:22.425Z,6.80
2022-10-10T12:22:12.096Z,6.90
2022-10-10T12:25:35.271Z,8.27
2022-10-10T12:28:28.125Z,8.05
2022-10-10T12:31:34.316Z,9.02
2022-10-10T12:34:47.936Z,8.15
2022-10-10T12:37:35.359Z,8.63
2022-10-10T12:40:22.609Z,7.70
2022-10-10T12:43:26.229Z,7.93
2022-10-10T12:46:20.768Z,8.07
2022-10-10T12:49:24.402Z,6.85
2022-10-10T12:52:22.775Z,6.90
2022-10-10T12:55:30.525Z,6.38
2022-10-10T12:58:30.338Z,7.05
2022-10-10T13:01:29.640Z,6.78
2022-10-10T13:04:19.758Z,7.35
2022-10-10T13:07:05.500Z,7.28
2022-10-10T13:09:54.866Z,7.00
2022-10-10T13:12:40.570Z,6.68
2022-10-10T13:15:26.785Z,8.68
2022-10-10T13:18:12.431Z,9.25
2022-10-10T13:20:58.413Z,8.77
2022-10-10T13:26:55.889Z,8.90
2022-10-10T13:29:41.924Z,9.02
2022-10-10T13:32:32.299Z,9.30
2022-10-10T13:35:21.945Z,8.85
2022-10-10T13:38:07.475Z,8.40
2022-10-10T13:40:53.546Z,8.30
2022-10-10T13:43:41.057Z,8.65
2022-10-10T13:46:32.221Z,10.02
2022-10-10T13:49:29.119Z,10.15
2022-10-10T13:52:23.154Z,8.95
2022-10-10T13:55:24.107Z,9.70
2022-10-10T13:58:10.789Z,8.70
2022-10-10T14:00:59.097Z,8.38
2022-10-10T14:03:47.803Z,7.72
2022-10-10T14:06:34.246Z,10.55
2022-10-10T14:09:26.229Z,9.75
2022-10-10T14:12:31.028Z,8.57
2022-10-10T14:15:35.493Z,8.35
2022-10-10T14:18:26.105Z,9.32
2022-10-10T14:21:12.188Z,9.65
2022-10-10T14:23:57.511Z,9.10
2022-10-10T14:26:43.254Z,9.18
2022-10-10T14:29:29.845Z,9.35
2022-10-10T14:32:16.359Z,7.93
2022-10-10T14:35:02.189Z,8.80
2022-10-10T14:37:48.017Z,9.40
2022-10-10T14:40:34.792Z,8.93
2022-10-10T14:43:22.516Z,8.18
2022-10-10T14:46:18.123Z,8.60
2022-10-10T14:49:09.649Z,7.57
2022-10-10T14:51:58.016Z,9.18
2022-10-10T14:54:43.811Z,7.60
2022-10-10T14:57:29.644Z,8.77
2022-10-10T15:00:18.638Z,8.95
2022-10-10T15:03:04.490Z,9.23
2022-10-10T15:05:51.206Z,8.13
2022-10-10T15:08:36.892Z,8.75
2022-10-10T15:11:22.535Z,8.00
2022-10-10T15:14:08.305Z,8.18
2022-10-10T15:16:54.472Z,9.88
2022-10-10T15:19:42.006Z,9.20
2022-10-10T15:22:31.824Z,8.32
2022-10-10T15:25:17.558Z,9.18
2022-10-10T15:28:04.467Z,9.10
2022-10-10T15:30:52.711Z,8.68
2022-10-10T15:33:39.366Z,8.55
2022-10-10T15:36:25.549Z,10.15
2022-10-10T15:39:11.676Z,8.25
2022-10-10T15:41:57.889Z,8.40
2022-10-10T15:44:47.543Z,9.10
2022-10-10T15:47:33.399Z,9.07
2022-10-10T15:50:18.892Z,8.05
2022-10-10T15:53:04.780Z,9.02
2022-10-10T15:55:50.369Z,8.90
2022-10-10T15:58:37.116Z,9.32
2022-10-10T16:01:23.199Z,8.85
2022-10-10T16:04:08.925Z,9.32
2022-10-10T16:07:19.997Z,9.60
2022-10-10T16:10:01.279Z,9.90
2022-10-10T16:12:46.958Z,9.32
2022-10-10T16:15:32.684Z,9.57
2022-10-10T16:18:18.046Z,9.85
2022-10-10T16:21:13.271Z,9.50
2022-10-10T16:23:59.222Z,9.32
2022-10-10T16:26:45.034Z,9.60
2022-10-10T16:29:30.818Z,9.70
2022-10-10T16:32:16.497Z,9.50
2022-10-10T16:35:02.314Z,10.30
2022-10-10T16:37:47.937Z,10.02
2022-10-10T16:40:36.704Z,10.60
2022-10-10T16:43:23.040Z,9.20
2022-10-10T16:46:12.361Z,10.15
2022-10-10T16:48:59.776Z,10.45
2022-10-10T16:51:45.566Z,10.18
2022-10-10T16:54:31.214Z,10.57
2022-10-10T16:57:17.297Z,10.40
2022-10-10T17:00:03.930Z,9.70
2022-10-10T17:02:49.294Z,9.82
2022-10-10T17:05:35.003Z,10.07
2022-10-10T17:08:20.616Z,10.07
2022-10-10T17:11:06.811Z,10.88
2022-10-10T17:13:52.817Z,10.45
2022-10-10T17:17:11.076Z,11.35
2022-10-10T17:19:44.108Z,11.02
2022-10-10T17:22:30.086Z,12.23
2022-10-10T17:25:15.918Z,11.77
2022-10-10T17:28:01.356Z,11.38
2022-10-10T17:30:50.115Z,11.70
2022-10-10T17:33:37.353Z,11.98
2022-10-10T17:36:28.074Z,11.35
2022-10-10T17:39:13.333Z,12.30
2022-10-10T17:41:59.932Z,11.18
2022-10-10T17:44:51.437Z,11.48
2022-10-10T17:47:41.490Z,11.27
2022-10-10T17:50:27.186Z,11.93
2022-10-10T17:53:12.799Z,11.00
2022-10-10T17:55:58.831Z,11.63
2022-10-10T17:58:45.937Z,11.82
2022-10-10T18:01:31.646Z,11.77
2022-10-10T18:04:17.632Z,12.60
2022-10-10T18:07:02.949Z,11.90
2022-10-10T18:09:51.712Z,11.35
2022-10-10T18:12:37.577Z,12.68
2022-10-10T18:15:23.838Z,12.95
2022-10-10T18:18:09.694Z,12.07
2022-10-10T18:21:01.514Z,11.38
2022-10-10T18:23:47.733Z,12.25
2022-10-10T18:26:35.000Z,13.32
2022-10-10T18:29:21.212Z,12.50
2022-10-10T18:32:06.967Z,12.60
2022-10-10T18:34:52.632Z,12.05
2022-10-10T18:37:38.767Z,13.00
2022-10-10T18:40:24.454Z,13.27
2022-10-10T18:43:10.904Z,13.27
2022-10-10T18:46:04.207Z,14.93
2022-10-10T18:51:43.301Z,13.68
2022-10-10T18:54:30.399Z,13.32
2022-10-10T18:57:16.026Z,14.07
2022-10-10T19:00:01.730Z,13.23
2022-10-10T19:02:47.453Z,13.25
2022-10-10T19:05:33.225Z,13.32
2022-10-10T19:08:18.981Z,14.32
2022-10-10T19:11:06.645Z,12.80
2022-10-10T19:13:54.035Z,13.25
2022-10-10T19:16:40.979Z,13.48
2022-10-10T19:19:26.675Z,12.75
2022-10-10T19:22:12.288Z,13.90
2022-10-10T19:24:57.823Z,14.07
2022-10-10T19:27:43.531Z,13.48
2022-10-10T19:30:29.491Z,14.05
2022-10-10T19:33:15.318Z,15.25
2022-10-10T19:36:02.485Z,14.32
2022-10-10T19:38:48.493Z,15.15
2022-10-10T19:41:34.286Z,14.90
2022-10-10T19:44:22.591Z,14.23
2022-10-10T19:47:07.891Z,14.75
2022-10-10T19:49:53.923Z,15.18
2022-10-10T19:52:39.811Z,15.05
2022-10-10T19:55:25.271Z,14.75
2022-10-10T19:58:11.206Z,14.63
2022-10-10T20:00:57.174Z,14.38
2022-10-10T20:03:47.610Z,14.98
2022-10-10T20:06:33.315Z,15.02
2022-10-10T20:09:19.013Z,14.90
2022-10-10T20:12:04.762Z,15.32
2022-10-10T20:14:50.541Z,14.95
2022-10-10T20:17:36.047Z,15.68
2022-10-10T20:20:21.863Z,15.35
2022-10-10T20:23:08.339Z,14.98
2022-10-10T20:25:54.059Z,14.75
2022-10-10T20:28:40.157Z,15.13
2022-10-10T20:31:30.891Z,14.77
2022-10-10T20:34:16.215Z,15.30
2022-10-10T20:37:01.939Z,15.30
2022-10-10T20:39:47.870Z,13.77
2022-10-10T20:42:33.251Z,14.43
2022-10-10T20:45:19.128Z,13.80
2022-10-10T20:48:05.175Z,14.50
2022-10-10T20:50:50.791Z,15.50
2022-10-10T20:53:38.185Z,15.35
2022-10-10T20:56:25.473Z,14.52
2022-10-10T20:59:12.222Z,14.68
2022-10-10T21:01:57.820Z,14.95
2022-10-10T21:04:43.660Z,14.02
2022-10-10T21:07:29.728Z,14.82
2022-10-10T21:10:15.253Z,13.85
2022-10-10T21:13:00.878Z,14.55
2022-10-10T21:15:46.655Z,14.57
2022-10-10T21:18:32.361Z,15.40
2022-10-10T21:21:18.512Z,15.45
2022-10-10T21:24:06.487Z,14.57
2022-10-10T21:26:52.069Z,14.00
2022-10-10T21:29:38.195Z,15.13
2022-10-10T21:32:23.787Z,14.18
2022-10-10T21:35:09.750Z,15.88
2022-10-10T21:37:55.303Z,14.77
2022-10-10T21:40:40.983Z,13.70
2022-10-10T21:43:26.627Z,14.70
2022-10-10T21:46:14.579Z,15.10
2022-10-10T21:49:06.988Z,15.85
2022-10-10T21:51:52.473Z,15.13
2022-10-10T21:54:38.419Z,14.63
2022-10-10T21:57:24.234Z,15.90
2022-10-10T22:00:10.295Z,15.23
2022-10-10T22:02:56.083Z,15.13
2022-10-10T22:05:43.247Z,15.35
2022-10-10T22:08:28.894Z,15.05
2022-10-10T22:11:17.692Z,15.63
2022-10-10T22:14:04.415Z,16.05
2022-10-10T22:16:50.091Z,16.20
2022-10-10T22:19:37.379Z,15.88
2022-10-10T22:22:22.998Z,16.17
2022-10-10T22:25:11.314Z,15.18
2022-10-10T22:27:58.939Z,16.15
2022-10-10T22:30:47.028Z,16.45
2022-10-10T22:33:32.730Z,15.80
2022-10-10T22:36:18.261Z,15.80
2022-10-10T22:39:05.103Z,15.10
2022-10-10T22:41:50.707Z,16.88
2022-10-10T22:44:36.374Z,15.68
2022-10-10T22:47:22.144Z,17.08
2022-10-10T22:50:08.369Z,15.88
2022-10-10T22:52:54.228Z,15.65
2022-10-10T22:55:39.845Z,17.48
2022-10-10T22:58:26.170Z,16.65
2022-10-10T23:01:15.584Z,16.35
2022-10-10T23:04:09.131Z,16.00
2022-10-10T23:06:54.803Z,16.30
2022-10-10T23:09:40.478Z,16.67
2022-10-10T23:12:26.395Z,16.52
2022-10-10T23:15:11.763Z,16.15
2022-10-10T23:17:57.678Z,17.38
2022-10-10T23:20:46.239Z,17.20
2022-10-10T23:23:31.952Z,17.35
2022-10-10T23:26:17.797Z,17.58
2022-10-10T23:29:03.614Z,17.23
2022-10-10T23:31:49.353Z,18.05
2022-10-10T23:34:35.329Z,17.20
2022-10-10T23:37:20.699Z,18.02
2022-10-10T23:40:07.488Z,17.13
2022-10-10T23:42:53.873Z,19.15
2022-10-10T23:45:41.003Z,18.55
2022-10-10T23:48:26.788Z,18.20
2022-10-10T23:51:13.180Z,18.95
2022-10-10T23:53:58.782Z,18.88
2022-10-10T23:56:44.392Z,19.15
2022-10-10T23:59:29.968Z,19.52
